createdAt,value
2022-09-14T03:46:14.406Z,16.67
2022-09-14T03:49:17.295Z,16.67
2022-09-14T03:52:19.928Z,16.24
2022-09-14T03:55:22.701Z,16.29
2022-09-14T03:58:25.742Z,16.29
2022-09-14T04:01:28.453Z,16.30
2022-09-14T04:04:31.278Z,16.42
2022-09-14T04:07:33.773Z,16.41
2022-09-14T04:10:39.215Z,16.42
2022-09-14T04:13:42.356Z,16.43
2022-09-14T04:16:45.044Z,16.47
2022-09-14T04:19:47.420Z,16.49
2022-09-14T04:22:50.000Z,16.42
2022-09-14T04:25:53.506Z,16.47
2022-09-14T04:28:56.762Z,16.49
2022-09-14T04:31:59.286Z,16.42
2022-09-14T04:35:01.808Z,16.49
2022-09-14T04:38:04.761Z,16.45
2022-09-14T04:41:09.881Z,16.50
2022-09-14T04:44:12.383Z,16.53
2022-09-14T04:47:14.951Z,16.51
2022-09-14T04:50:17.342Z,16.41
2022-09-14T04:53:19.951Z,16.57
2022-09-14T04:56:24.397Z,16.79
2022-09-14T04:59:27.155Z,16.84
2022-09-14T05:02:30.938Z,16.86
2022-09-14T05:05:35.657Z,16.93
2022-09-14T05:08:38.698Z,16.96
2022-09-14T05:11:42.145Z,17.00
2022-09-14T05:14:44.429Z,17.01
2022-09-14T05:17:47.193Z,17.08
2022-09-14T05:20:49.672Z,17.09
2022-09-14T05:23:57.166Z,17.05
2022-09-14T05:27:01.090Z,17.11
2022-09-14T05:30:05.605Z,17.21
2022-09-14T05:33:08.029Z,17.27
2022-09-14T05:36:11.058Z,17.29
2022-09-14T05:39:13.829Z,17.30
2022-09-14T05:42:16.531Z,17.32
2022-09-14T05:45:19.252Z,17.43
2022-09-14T05:48:22.022Z,17.36
2022-09-14T05:51:26.286Z,17.53
2022-09-14T05:54:29.306Z,17.53
2022-09-14T05:57:31.959Z,17.54
2022-09-14T06:00:34.986Z,17.46
2022-09-14T06:03:38.826Z,17.54
2022-09-14T06:06:46.915Z,17.42
2022-09-14T06:09:58.849Z,17.62
2022-09-14T06:13:01.123Z,17.58
2022-09-14T06:16:06.323Z,17.65
2022-09-14T06:19:09.169Z,17.86
2022-09-14T06:22:11.712Z,17.96
2022-09-14T06:25:18.071Z,18.00
2022-09-14T06:28:20.947Z,18.16
2022-09-14T06:31:25.207Z,18.23
2022-09-14T06:34:27.876Z,18.26
2022-09-14T06:37:30.216Z,18.16
2022-09-14T06:40:32.909Z,18.20
2022-09-14T06:43:38.973Z,18.19
2022-09-14T06:46:45.677Z,18.41
2022-09-14T06:49:51.041Z,18.45
2022-09-14T06:52:53.649Z,18.35
2022-09-14T06:55:59.061Z,18.18
2022-09-14T06:59:02.563Z,18.21
2022-09-14T07:02:04.895Z,17.95
2022-09-14T07:05:08.140Z,17.93
2022-09-14T07:08:12.461Z,17.83
2022-09-14T07:11:17.582Z,17.83
2022-09-14T07:14:20.148Z,17.68
2022-09-14T07:17:22.855Z,17.79
2022-09-14T07:20:25.445Z,17.71
2022-09-14T07:23:28.395Z,17.62
2022-09-14T07:26:33.850Z,17.72
2022-09-14T07:29:36.455Z,17.71
2022-09-14T07:32:38.902Z,17.79
2022-09-14T07:35:42.018Z,17.67
2022-09-14T07:38:53.444Z,17.55
2022-09-14T07:41:56.261Z,17.68
2022-09-14T07:44:58.725Z,17.78
2022-09-14T07:48:01.569Z,17.97
2022-09-14T07:51:07.496Z,18.00
2022-09-14T07:54:13.478Z,18.05
2022-09-14T07:57:17.029Z,18.04
2022-09-14T08:00:21.928Z,18.13
2022-09-14T08:03:24.057Z,18.22
2022-09-14T08:06:26.336Z,18.24
2022-09-14T08:09:29.420Z,18.29
2022-09-14T08:12:31.715Z,18.33
2022-09-14T08:15:33.926Z,18.34
2022-09-14T08:18:36.661Z,18.42
2022-09-14T08:21:44.161Z,18.45
2022-09-14T08:24:49.081Z,18.32
2022-09-14T08:27:51.343Z,18.37
2022-09-14T08:30:53.549Z,18.54
2022-09-14T08:34:01.021Z,18.64
2022-09-14T08:37:03.334Z,18.82
2022-09-14T08:40:06.064Z,18.82
2022-09-14T08:43:13.052Z,19.00
2022-09-14T08:46:38.455Z,19.17
2022-09-14T08:50:00.009Z,19.70
2022-09-14T08:53:02.479Z,20.23
2022-09-14T08:56:13.218Z,20.34
2022-09-14T08:59:36.156Z,20.45
2022-09-14T09:02:53.572Z,20.93
2022-09-14T09:06:15.154Z,21.25
2022-09-14T09:09:31.440Z,21.13
2022-09-14T09:12:38.612Z,20.94
2022-09-14T09:15:53.078Z,20.64
2022-09-14T09:19:07.640Z,20.49
2022-09-14T09:22:16.765Z,20.22
2022-09-14T09:25:27.166Z,20.51
2022-09-14T09:28:31.179Z,20.83
2022-09-14T09:31:39.998Z,20.96
2022-09-14T09:34:44.577Z,21.02
2022-09-14T09:37:47.604Z,21.12
2022-09-14T09:41:11.847Z,21.18
2022-09-14T09:44:15.244Z,21.20
2022-09-14T09:47:30.358Z,21.21
2022-09-14T09:50:33.176Z,21.19
2022-09-14T09:53:37.667Z,21.23
2022-09-14T09:57:07.504Z,21.52
2022-09-14T10:00:13.541Z,21.78
2022-09-14T10:03:28.585Z,21.80
2022-09-14T10:06:32.136Z,21.73
2022-09-14T10:09:36.455Z,21.71
2022-09-14T10:12:45.957Z,21.78
2022-09-14T10:15:50.035Z,21.91
2022-09-14T10:18:54.324Z,22.09
2022-09-14T10:22:20.034Z,22.48
2022-09-14T10:25:28.007Z,22.60
2022-09-14T10:28:33.821Z,22.64
2022-09-14T10:31:44.758Z,22.64
2022-09-14T10:34:48.134Z,22.76
2022-09-14T10:38:02.909Z,22.77
2022-09-14T10:41:16.968Z,22.92
2022-09-14T10:44:51.694Z,22.74
2022-09-14T10:48:31.020Z,22.78
2022-09-14T10:52:23.108Z,22.74
2022-09-14T10:55:47.038Z,22.70
2022-09-14T10:59:16.875Z,22.45
2022-09-14T11:02:37.355Z,22.26
2022-09-14T11:05:53.182Z,22.47
2022-09-14T11:08:58.847Z,22.49
2022-09-14T11:12:06.757Z,22.51
2022-09-14T11:15:28.862Z,22.51
2022-09-14T11:18:34.294Z,22.59
2022-09-14T11:21:57.104Z,22.58
2022-09-14T11:25:08.896Z,22.77
2022-09-14T11:28:38.177Z,22.90
2022-09-14T11:32:21.061Z,22.79
2022-09-14T11:35:32.738Z,22.85
2022-09-14T11:38:42.473Z,22.69
2022-09-14T11:42:02.983Z,22.77
2022-09-14T11:45:15.644Z,22.72
2022-09-14T11:48:44.039Z,22.86
2022-09-14T11:51:55.065Z,22.99
2022-09-14T11:54:59.777Z,23.06
2022-09-14T11:58:06.290Z,23.08
2022-09-14T12:01:39.198Z,23.19
2022-09-14T12:05:04.463Z,23.30
2022-09-14T12:08:31.593Z,23.46
2022-09-14T12:11:36.047Z,23.52
2022-09-14T12:14:42.535Z,23.59
2022-09-14T12:17:45.746Z,23.72
2022-09-14T12:20:52.887Z,23.88
2022-09-14T12:23:57.885Z,24.16
2022-09-14T12:27:19.011Z,24.37
2022-09-14T12:30:40.887Z,24.13
2022-09-14T12:33:46.064Z,24.29
2022-09-14T12:36:48.583Z,24.48
2022-09-14T12:40:22.141Z,24.48
2022-09-14T12:43:33.639Z,24.69
2022-09-14T12:46:38.608Z,24.90
2022-09-14T12:49:41.446Z,24.93
2022-09-14T12:53:27.868Z,24.87
2022-09-14T12:56:33.726Z,24.86
2022-09-14T12:59:54.757Z,24.73
2022-09-14T13:03:00.148Z,24.45
2022-09-14T13:06:03.189Z,24.37
2022-09-14T13:09:17.760Z,24.23
2022-09-14T13:12:41.710Z,24.42
2022-09-14T13:15:54.473Z,24.78
2022-09-14T13:19:03.189Z,24.92
2022-09-14T13:22:18.882Z,25.08
2022-09-14T13:25:29.712Z,24.83
2022-09-14T13:28:32.983Z,24.80
2022-09-14T13:31:39.498Z,24.83
2022-09-14T13:34:42.159Z,24.67
2022-09-14T13:37:48.188Z,24.84
2022-09-14T13:40:54.571Z,24.78
2022-09-14T13:43:58.395Z,24.85
2022-09-14T13:47:04.638Z,24.92
2022-09-14T13:50:07.984Z,25.04
2022-09-14T13:53:43.759Z,25.15
2022-09-14T13:56:47.058Z,25.24
2022-09-14T14:00:12.020Z,25.28
2022-09-14T14:03:29.069Z,25.41
2022-09-14T14:06:34.956Z,25.38
2022-09-14T14:09:39.238Z,25.11
2022-09-14T14:12:42.690Z,25.24
2022-09-14T14:15:45.396Z,25.39
2022-09-14T14:18:52.165Z,25.31
2022-09-14T14:22:13.619Z,25.28
2022-09-14T14:25:19.875Z,25.23
2022-09-14T14:28:27.573Z,25.30
2022-09-14T14:31:29.936Z,25.05
2022-09-14T14:34:32.552Z,25.09
2022-09-14T14:37:34.931Z,25.07
2022-09-14T14:40:40.112Z,24.97
2022-09-14T14:43:49.959Z,25.02
2022-09-14T14:46:52.699Z,25.00
2022-09-14T14:49:55.150Z,25.01
2022-09-14T14:52:58.519Z,25.10
2022-09-14T14:56:00.983Z,25.18
2022-09-14T14:59:04.719Z,25.24
2022-09-14T15:02:07.092Z,25.12
2022-09-14T15:05:09.707Z,25.14
2022-09-14T15:08:14.142Z,25.03
2022-09-14T15:11:20.786Z,24.83
2022-09-14T15:14:27.270Z,24.68
2022-09-14T15:17:32.729Z,24.74
2022-09-14T15:20:35.872Z,24.84
2022-09-14T15:23:38.922Z,25.04
2022-09-14T15:26:41.374Z,25.14
2022-09-14T15:29:44.437Z,25.27
2022-09-14T15:32:46.864Z,25.12
2022-09-14T15:35:55.870Z,25.10
2022-09-14T15:38:58.367Z,24.96
2022-09-14T15:42:01.066Z,24.90
2022-09-14T15:45:04.140Z,24.65
2022-09-14T15:48:06.771Z,24.58
2022-09-14T15:51:11.734Z,24.41
2022-09-14T15:54:14.692Z,24.35
2022-09-14T15:57:17.009Z,24.32
2022-09-14T16:00:19.986Z,24.43
2022-09-14T16:03:22.710Z,24.35
2022-09-14T16:06:25.466Z,24.24
2022-09-14T16:09:28.007Z,24.17
2022-09-14T16:12:30.521Z,24.17
2022-09-14T16:15:33.149Z,24.09
2022-09-14T16:18:36.630Z,24.07
2022-09-14T16:21:40.211Z,23.97
2022-09-14T16:24:42.621Z,23.96
2022-09-14T16:27:45.305Z,23.91
2022-09-14T16:30:48.196Z,23.70
2022-09-14T16:33:53.175Z,23.80
2022-09-14T16:36:56.594Z,23.63
2022-09-14T16:40:00.092Z,23.63
2022-09-14T16:43:02.461Z,23.53
2022-09-14T16:46:07.016Z,23.54
2022-09-14T16:49:10.494Z,23.46
2022-09-14T16:52:13.081Z,23.26
2022-09-14T16:55:15.690Z,23.03
2022-09-14T16:58:18.328Z,22.82
2022-09-14T17:01:28.797Z,22.90
2022-09-14T17:04:31.919Z,22.73
2022-09-14T17:07:34.327Z,22.47
2022-09-14T17:10:36.963Z,22.28
2022-09-14T17:13:40.396Z,22.21
2022-09-14T17:16:43.750Z,22.15
2022-09-14T17:19:46.723Z,22.07
2022-09-14T17:22:49.285Z,21.94
2022-09-14T17:25:52.867Z,21.88
2022-09-14T17:28:57.502Z,21.83
2022-09-14T17:32:00.258Z,21.78
2022-09-14T17:35:03.658Z,21.63
2022-09-14T17:38:06.041Z,21.58
2022-09-14T17:41:09.780Z,21.55
2022-09-14T17:44:14.085Z,21.45
2022-09-14T17:47:18.511Z,21.37
2022-09-14T17:50:23.568Z,21.35
2022-09-14T17:53:26.272Z,21.24
2022-09-14T17:56:29.895Z,21.24
2022-09-14T17:59:32.717Z,21.18
2022-09-14T18:02:35.060Z,21.06
2022-09-14T18:05:37.903Z,21.01
2022-09-14T18:08:40.641Z,20.99
2022-09-14T18:11:43.492Z,20.91
2022-09-14T18:14:46.610Z,20.86
2022-09-14T18:17:50.535Z,20.80
2022-09-14T18:20:52.839Z,20.72
2022-09-14T18:23:55.720Z,20.66
2022-09-14T18:26:59.509Z,20.59
2022-09-14T18:30:02.924Z,20.57
2022-09-14T18:33:05.532Z,20.58
2022-09-14T18:36:08.356Z,20.56
2022-09-14T18:39:12.454Z,20.57
2022-09-14T18:42:15.496Z,20.52
2022-09-14T18:45:17.865Z,20.52
2022-09-14T18:48:20.528Z,20.49
2022-09-14T18:51:23.003Z,20.49
2022-09-14T18:54:27.754Z,20.45
2022-09-14T18:57:30.488Z,20.32
2022-09-14T19:00:33.351Z,20.29
2022-09-14T19:03:37.546Z,20.32
2022-09-14T19:06:41.612Z,20.33
2022-09-14T19:09:44.900Z,20.23
2022-09-14T19:12:47.533Z,20.18
2022-09-14T19:15:49.959Z,20.17
2022-09-14T19:18:53.214Z,20.10
2022-09-14T19:21:55.609Z,20.09
2022-09-14T19:24:58.495Z,20.18
2022-09-14T19:28:00.923Z,20.22
2022-09-14T19:31:08.826Z,20.27
2022-09-14T19:34:11.698Z,20.29
2022-09-14T19:37:14.627Z,20.23
2022-09-14T19:40:19.626Z,20.21
2022-09-14T19:43:42.538Z,20.14
2022-09-14T19:46:44.991Z,20.19
2022-09-14T19:49:48.137Z,20.27
2022-09-14T19:52:50.582Z,20.57
2022-09-14T19:55:53.466Z,20.53
2022-09-14T19:58:59.083Z,20.48
2022-09-14T20:02:02.851Z,20.45
2022-09-14T20:05:08.229Z,20.37
2022-09-14T20:08:10.641Z,20.41
2022-09-14T20:11:17.712Z,20.39
2022-09-14T20:14:24.022Z,20.42
2022-09-14T20:17:27.084Z,20.45
2022-09-14T20:20:29.535Z,20.50
2022-09-14T20:23:32.391Z,20.55
2022-09-14T20:26:34.785Z,20.61
2022-09-14T20:29:37.397Z,20.67
2022-09-14T20:32:39.796Z,20.82
2022-09-14T20:35:42.710Z,20.95
2022-09-14T20:38:56.815Z,20.92
2022-09-14T20:41:59.490Z,20.93
2022-09-14T20:45:01.930Z,20.93
2022-09-14T20:48:05.189Z,21.11
2022-09-14T20:51:08.055Z,21.09
2022-09-14T20:54:14.499Z,21.01
2022-09-14T20:57:17.053Z,20.99
2022-09-14T21:00:19.973Z,21.06
2022-09-14T21:03:22.783Z,20.99
2022-09-14T21:06:26.535Z,21.05
2022-09-14T21:09:29.164Z,21.06
2022-09-14T21:12:31.905Z,21.04
2022-09-14T21:15:37.928Z,21.12
2022-09-14T21:18:41.423Z,21.10
2022-09-14T21:21:44.274Z,21.12
2022-09-14T21:24:47.172Z,21.22
2022-09-14T21:27:49.480Z,21.41
2022-09-14T21:30:52.480Z,21.42
2022-09-14T21:33:58.627Z,21.50
2022-09-14T21:37:02.026Z,21.64
2022-09-14T21:40:04.693Z,21.62
2022-09-14T21:43:07.391Z,21.67
2022-09-14T21:46:10.978Z,21.73
2022-09-14T21:49:16.896Z,21.85
2022-09-14T21:52:19.555Z,21.93
2022-09-14T21:55:22.407Z,21.99
2022-09-14T21:58:25.713Z,21.98
2022-09-14T22:01:29.817Z,22.00
2022-09-14T22:04:32.842Z,21.94
2022-09-14T22:07:35.494Z,21.99
2022-09-14T22:10:38.360Z,21.96
2022-09-14T22:13:41.266Z,21.98
2022-09-14T22:16:44.835Z,21.94
2022-09-14T22:19:48.081Z,21.87
2022-09-14T22:22:50.862Z,21.70
2022-09-14T22:25:53.581Z,21.65
2022-09-14T22:28:58.178Z,21.81
2022-09-14T22:32:00.827Z,21.84
2022-09-14T22:35:04.430Z,21.88
2022-09-14T22:38:08.137Z,21.87
2022-09-14T22:41:19.559Z,21.81
2022-09-14T22:44:22.061Z,21.69
2022-09-14T22:47:25.011Z,21.65
2022-09-14T22:50:27.522Z,21.52
2022-09-14T22:53:31.352Z,21.38
2022-09-14T22:56:36.932Z,21.35
2022-09-14T22:59:39.705Z,21.37
2022-09-14T23:02:42.968Z,21.47
2022-09-14T23:05:50.377Z,21.40
2022-09-14T23:08:53.117Z,21.34
2022-09-14T23:11:55.956Z,21.26
2022-09-14T23:14:58.368Z,21.25
2022-09-14T23:18:01.533Z,21.28
2022-09-14T23:21:05.063Z,21.31
2022-09-14T23:24:10.762Z,21.32
2022-09-14T23:27:13.761Z,21.38
2022-09-14T23:30:16.757Z,21.34
2022-09-14T23:33:19.458Z,21.30
2022-09-14T23:36:23.349Z,21.28
2022-09-14T23:39:26.131Z,21.23
2022-09-14T23:42:29.476Z,21.26
2022-09-14T23:45:32.281Z,21.33
2022-09-14T23:48:35.971Z,21.40
2022-09-14T23:51:39.799Z,21.33
2022-09-14T23:54:42.882Z,21.26
2022-09-14T23:57:45.587Z,21.27
